createdAt,value
2022-12-03T00:00:17.135Z,80.34
2022-12-03T00:02:44.135Z,80.04
2022-12-03T00:05:11.300Z,76.16
2022-12-03T00:07:38.429Z,73.73
2022-12-03T00:10:06.392Z,74.75
2022-12-03T00:12:33.303Z,74.23
2022-12-03T00:15:00.204Z,73.54
2022-12-03T00:17:27.065Z,73.38
2022-12-03T00:19:53.775Z,77.73
2022-12-03T00:22:20.643Z,75.12
2022-12-03T00:24:47.531Z,76.48
2022-12-03T00:27:14.413Z,77.70
2022-12-03T00:29:41.286Z,78.85
2022-12-03T00:32:08.144Z,76.74
2022-12-03T00:34:34.823Z,80.48
2022-12-03T00:37:01.756Z,77.31
2022-12-03T00:39:28.691Z,76.30
2022-12-03T00:41:55.564Z,76.46
2022-12-03T00:44:22.455Z,75.14
2022-12-03T00:46:49.416Z,74.41
2022-12-03T00:49:16.293Z,70.77
2022-12-03T00:51:42.950Z,74.12
2022-12-03T00:54:09.842Z,75.16
2022-12-03T00:56:36.681Z,73.38
2022-12-03T00:59:03.389Z,73.11
2022-12-03T01:01:30.397Z,71.42
2022-12-03T01:03:57.327Z,70.69
2022-12-03T01:06:24.230Z,72.01
2022-12-03T01:08:51.130Z,76.27
2022-12-03T01:11:36.477Z,75.62
2022-12-03T01:14:04.395Z,74.91
2022-12-03T01:16:31.353Z,76.58
2022-12-03T01:18:58.261Z,77.69
2022-12-03T01:21:25.136Z,79.36
2022-12-03T01:23:52.044Z,76.85
2022-12-03T01:26:18.896Z,78.95
2022-12-03T01:28:45.594Z,77.71
2022-12-03T01:31:31.229Z,78.88
2022-12-03T01:33:58.160Z,75.53
2022-12-03T01:36:25.055Z,76.92
2022-12-03T01:38:51.911Z,74.54
2022-12-03T01:41:19.295Z,77.10
2022-12-03T01:43:46.808Z,76.41
2022-12-03T01:46:19.492Z,73.65
2022-12-03T01:48:47.181Z,79.16
2022-12-03T01:51:14.713Z,77.38
2022-12-03T01:53:42.079Z,76.88
2022-12-03T01:56:12.045Z,80.24
2022-12-03T01:58:39.374Z,76.66
2022-12-03T02:01:17.684Z,79.17
2022-12-03T02:03:45.732Z,80.17
2022-12-03T02:06:17.437Z,81.97
2022-12-03T02:08:44.922Z,84.71
2022-12-03T02:11:32.551Z,82.44
2022-12-03T02:14:06.377Z,80.01
2022-12-03T02:16:35.498Z,80.18
2022-12-03T02:19:02.689Z,78.79
2022-12-03T02:21:47.981Z,77.64
2022-12-03T02:24:48.191Z,77.79
2022-12-03T02:27:15.057Z,75.98
2022-12-03T02:29:41.738Z,81.17
2022-12-03T02:32:08.594Z,80.19
2022-12-03T02:34:36.626Z,77.18
2022-12-03T02:37:03.343Z,75.88
2022-12-03T02:39:32.239Z,73.78
2022-12-03T02:42:17.497Z,74.52
2022-12-03T02:44:44.427Z,75.69
2022-12-03T02:47:11.454Z,73.04
2022-12-03T02:49:38.331Z,72.95
2022-12-03T02:52:04.985Z,75.26
2022-12-03T02:54:31.902Z,80.71
2022-12-03T02:56:58.854Z,76.09
2022-12-03T02:59:25.841Z,77.11
2022-12-03T03:01:52.731Z,75.87
2022-12-03T03:04:19.711Z,74.69
2022-12-03T03:06:47.027Z,75.02
2022-12-03T03:09:13.963Z,77.03
2022-12-03T03:11:40.874Z,73.92
2022-12-03T03:14:07.737Z,76.36
2022-12-03T03:16:34.916Z,77.02
2022-12-03T03:19:02.340Z,76.62
2022-12-03T03:21:29.240Z,81.65
2022-12-03T03:23:56.120Z,80.67
2022-12-03T03:26:23.136Z,79.57
2022-12-03T03:28:51.837Z,81.18
2022-12-03T03:31:22.158Z,78.59
2022-12-03T03:33:50.231Z,81.64
2022-12-03T03:36:17.443Z,81.97
2022-12-03T03:38:44.370Z,77.83
2022-12-03T03:41:11.633Z,78.03
2022-12-03T03:43:39.236Z,81.09
2022-12-03T03:46:07.069Z,81.48
2022-12-03T03:48:35.270Z,83.05
2022-12-03T03:51:09.610Z,82.41
2022-12-03T03:53:42.656Z,83.89
2022-12-03T03:56:10.165Z,85.26
2022-12-03T03:58:37.928Z,81.86
2022-12-03T04:01:04.901Z,82.45
2022-12-03T04:03:31.784Z,79.78
2022-12-03T04:05:58.498Z,82.84
2022-12-03T04:08:25.419Z,82.04
2022-12-03T04:11:10.863Z,83.31
2022-12-03T04:13:37.743Z,84.84
2022-12-03T04:16:04.806Z,82.41
2022-12-03T04:18:43.859Z,81.64
2022-12-03T04:21:34.962Z,78.43
2022-12-03T04:24:02.169Z,79.04
2022-12-03T04:26:47.801Z,81.59
2022-12-03T04:29:14.816Z,83.38
2022-12-03T04:32:00.878Z,78.44
2022-12-03T04:34:46.287Z,81.13
2022-12-03T04:37:13.267Z,79.81
2022-12-03T04:39:40.332Z,81.86
2022-12-03T04:42:07.538Z,79.78
2022-12-03T04:44:36.553Z,78.86
2022-12-03T04:47:20.389Z,75.91
2022-12-03T04:49:49.833Z,78.92
2022-12-03T04:52:18.657Z,81.95
2022-12-03T04:54:45.728Z,78.89
2022-12-03T04:57:12.999Z,82.67
2022-12-03T04:59:40.130Z,82.26
2022-12-03T05:02:07.450Z,84.60
2022-12-03T05:04:34.620Z,82.71
2022-12-03T05:07:01.514Z,86.50
2022-12-03T05:09:28.371Z,87.82
2022-12-03T05:11:55.036Z,90.01
2022-12-03T05:14:21.987Z,87.53
2022-12-03T05:16:49.003Z,86.88
2022-12-03T05:19:15.929Z,84.52
2022-12-03T05:21:42.767Z,84.69
2022-12-03T05:24:09.465Z,83.46
2022-12-03T05:26:36.318Z,83.96
2022-12-03T05:29:02.970Z,83.27
2022-12-03T05:31:29.927Z,84.85
2022-12-03T05:33:56.857Z,84.06
2022-12-03T05:36:25.483Z,82.46
2022-12-03T05:38:52.643Z,83.42
2022-12-03T05:41:38.031Z,86.52
2022-12-03T05:44:04.983Z,88.29
2022-12-03T05:46:34.227Z,84.58
2022-12-03T05:49:01.206Z,87.96
2022-12-03T05:51:28.196Z,86.44
2022-12-03T05:53:54.879Z,83.13
2022-12-03T05:56:21.723Z,91.12
2022-12-03T05:58:48.407Z,85.65
2022-12-03T06:01:15.311Z,89.95
2022-12-03T06:03:42.307Z,87.10
2022-12-03T06:06:09.259Z,86.94
2022-12-03T06:08:36.145Z,90.12
2022-12-03T06:11:03.047Z,90.10
2022-12-03T06:13:29.888Z,93.55
2022-12-03T06:15:56.648Z,90.49
2022-12-03T06:18:23.578Z,92.29
2022-12-03T06:20:50.431Z,87.28
2022-12-03T06:23:17.125Z,87.95
2022-12-03T06:25:43.986Z,89.91
2022-12-03T06:28:10.668Z,86.47
2022-12-03T06:30:40.185Z,88.05
2022-12-03T06:33:07.111Z,92.62
2022-12-03T06:35:33.983Z,95.88
2022-12-03T06:38:00.996Z,92.42
2022-12-03T06:40:27.866Z,85.02
2022-12-03T06:42:54.529Z,90.78
2022-12-03T06:45:21.469Z,90.84
2022-12-03T06:47:48.367Z,89.71
2022-12-03T06:50:15.290Z,92.56
2022-12-03T06:52:42.164Z,92.90
2022-12-03T06:55:09.687Z,92.37
2022-12-03T06:57:36.574Z,90.49
2022-12-03T07:00:06.481Z,89.12
2022-12-03T07:02:33.484Z,94.09
2022-12-03T07:05:00.417Z,96.19
2022-12-03T07:07:27.151Z,92.62
2022-12-03T07:09:54.210Z,93.80
2022-12-03T07:12:21.087Z,92.14
2022-12-03T07:14:47.918Z,92.48
2022-12-03T07:17:14.630Z,95.45
2022-12-03T07:19:41.482Z,95.59
2022-12-03T07:22:08.164Z,93.94
2022-12-03T07:24:35.020Z,92.72
2022-12-03T07:27:01.874Z,92.97
2022-12-03T07:29:28.575Z,96.64
2022-12-03T07:31:55.525Z,92.19
2022-12-03T07:34:22.433Z,91.19
2022-12-03T07:36:49.207Z,91.67
2022-12-03T07:39:16.133Z,92.07
2022-12-03T07:41:42.967Z,91.82
2022-12-03T07:44:14.335Z,93.21
2022-12-03T07:46:43.017Z,91.41
2022-12-03T07:49:10.125Z,90.52
2022-12-03T07:51:37.052Z,92.32
2022-12-03T07:54:04.383Z,93.59
2022-12-03T07:56:31.269Z,94.31
2022-12-03T07:58:58.128Z,87.11
2022-12-03T08:01:24.877Z,95.00
2022-12-03T08:03:51.809Z,95.08
2022-12-03T08:06:18.693Z,95.81
2022-12-03T08:08:45.658Z,96.12
2022-12-03T08:11:15.111Z,94.66
2022-12-03T08:13:42.041Z,100.00
2022-12-03T08:16:18.415Z,96.07
2022-12-03T08:18:46.495Z,94.06
2022-12-03T08:21:14.984Z,91.71
2022-12-03T08:23:42.018Z,96.33
2022-12-03T08:26:20.942Z,97.49
2022-12-03T08:28:47.907Z,100.00
2022-12-03T08:31:26.830Z,95.42
2022-12-03T08:34:14.287Z,100.00
2022-12-03T08:36:41.174Z,95.91
2022-12-03T08:39:22.978Z,100.00
2022-12-03T08:42:33.981Z,100.00
2022-12-03T08:45:30.427Z,98.70
2022-12-03T08:47:58.664Z,100.00
2022-12-03T08:50:31.100Z,96.33
2022-12-03T08:53:25.980Z,100.00
2022-12-03T08:55:54.378Z,100.00
2022-12-03T08:58:21.163Z,100.00
2022-12-03T09:00:47.932Z,100.00
2022-12-03T09:03:17.162Z,100.00
2022-12-03T09:05:44.049Z,97.59
2022-12-03T09:08:10.977Z,99.48
2022-12-03T09:10:38.844Z,97.33
2022-12-03T09:13:05.697Z,96.60
2022-12-03T09:15:32.673Z,96.71
2022-12-03T09:17:59.550Z,100.00
2022-12-03T09:20:26.430Z,99.46
2022-12-03T09:22:53.311Z,95.48
2022-12-03T09:25:20.206Z,98.24
2022-12-03T09:27:47.054Z,96.32
2022-12-03T09:30:13.855Z,97.40
2022-12-03T09:32:40.716Z,97.55
2022-12-03T09:35:07.838Z,98.33
2022-12-03T09:37:34.694Z,98.03
2022-12-03T09:40:01.370Z,97.54
2022-12-03T09:42:28.522Z,99.90
2022-12-03T09:44:55.939Z,97.19
2022-12-03T09:47:25.771Z,96.51
2022-12-03T09:49:53.239Z,95.90
2022-12-03T09:52:25.389Z,96.03
2022-12-03T09:54:53.834Z,96.71
2022-12-03T09:57:21.099Z,97.64
2022-12-03T09:59:48.007Z,99.59
2022-12-03T10:02:29.613Z,100.00
2022-12-03T10:04:57.912Z,95.78
2022-12-03T10:07:25.851Z,96.93
2022-12-03T10:09:53.547Z,95.87
2022-12-03T10:12:23.687Z,92.85
2022-12-03T10:14:50.935Z,91.56
2022-12-03T10:17:17.970Z,95.07
2022-12-03T10:19:45.217Z,91.50
2022-12-03T10:22:12.123Z,94.29
2022-12-03T10:24:39.320Z,92.29
2022-12-03T10:27:24.432Z,94.09
2022-12-03T10:29:56.354Z,91.62
2022-12-03T10:32:45.935Z,86.54
2022-12-03T10:35:18.715Z,89.70
2022-12-03T10:38:01.869Z,89.97
2022-12-03T10:40:32.768Z,94.89
2022-12-03T10:43:18.088Z,94.38
2022-12-03T10:46:04.855Z,93.19
2022-12-03T10:48:31.860Z,94.59
2022-12-03T10:51:07.152Z,92.78
2022-12-03T10:53:35.810Z,91.10
2022-12-03T10:56:05.370Z,90.70
2022-12-03T10:58:36.072Z,92.37
2022-12-03T11:01:06.504Z,89.03
2022-12-03T11:03:37.182Z,92.16
2022-12-03T11:06:04.248Z,92.97
2022-12-03T11:08:34.025Z,97.06
2022-12-03T11:11:00.820Z,91.95
2022-12-03T11:13:30.575Z,93.42
2022-12-03T11:15:57.941Z,89.15
2022-12-03T11:18:37.122Z,89.86
2022-12-03T11:21:08.136Z,92.98
2022-12-03T11:23:47.318Z,97.08
2022-12-03T11:26:27.334Z,96.62
2022-12-03T11:28:56.818Z,94.66
2022-12-03T11:31:40.869Z,94.23
2022-12-03T11:34:20.540Z,96.65
2022-12-03T11:37:13.015Z,93.31
2022-12-03T11:39:49.989Z,97.28
2022-12-03T11:42:25.918Z,94.81
2022-12-03T11:45:04.881Z,92.45
2022-12-03T11:47:34.722Z,95.07
2022-12-03T11:50:01.699Z,90.51
2022-12-03T11:52:38.775Z,94.96
2022-12-03T11:55:19.118Z,95.33
2022-12-03T11:57:46.222Z,98.38
2022-12-03T12:00:19.854Z,94.74
2022-12-03T12:02:46.789Z,94.77
2022-12-03T12:05:39.718Z,98.85
2022-12-03T12:08:18.945Z,94.83
2022-12-03T12:10:49.823Z,95.04
2022-12-03T12:13:32.111Z,97.23
2022-12-03T12:16:00.163Z,98.42
2022-12-03T12:18:41.904Z,99.02
2022-12-03T12:21:43.129Z,97.45
2022-12-03T12:24:30.415Z,99.00
2022-12-03T12:27:01.905Z,96.02
2022-12-03T12:29:28.892Z,96.16
2022-12-03T12:32:11.175Z,97.81
2022-12-03T12:34:39.604Z,98.48
2022-12-03T12:37:14.851Z,93.91
2022-12-03T12:39:41.856Z,95.92
2022-12-03T12:42:30.400Z,96.34
2022-12-03T12:45:22.861Z,96.80
2022-12-03T12:48:09.953Z,96.65
2022-12-03T12:50:41.886Z,90.67
2022-12-03T12:53:12.995Z,97.32
2022-12-03T12:55:40.207Z,98.78
2022-12-03T12:58:19.595Z,98.58
2022-12-03T13:00:51.325Z,94.91
2022-12-03T13:03:21.835Z,92.53
2022-12-03T13:05:50.203Z,99.55
2022-12-03T13:08:39.263Z,99.91
2022-12-03T13:11:06.678Z,96.55
2022-12-03T13:13:44.258Z,96.19
2022-12-03T13:16:27.140Z,93.66
2022-12-03T13:18:55.927Z,93.84
2022-12-03T13:21:39.758Z,92.84
2022-12-03T13:24:38.677Z,89.47
2022-12-03T13:27:17.572Z,92.16
2022-12-03T13:29:45.647Z,90.65
2022-12-03T13:32:16.557Z,88.37
2022-12-03T13:34:44.789Z,92.06
2022-12-03T13:37:18.853Z,90.92
2022-12-03T13:39:53.508Z,91.42
2022-12-03T13:42:46.732Z,95.29
2022-12-03T13:45:16.559Z,96.44
2022-12-03T13:47:51.221Z,92.36
2022-12-03T13:50:39.392Z,94.26
2022-12-03T13:53:19.471Z,93.46
2022-12-03T13:55:50.429Z,92.04
2022-12-03T13:58:17.304Z,97.63
2022-12-03T14:00:44.041Z,96.91
2022-12-03T14:03:10.984Z,97.17
2022-12-03T14:05:37.901Z,99.75
2022-12-03T14:08:06.315Z,100.00
2022-12-03T14:10:33.447Z,100.00
2022-12-03T14:13:00.325Z,100.00
2022-12-03T14:15:27.011Z,98.56
2022-12-03T14:17:53.976Z,100.00
2022-12-03T14:20:22.831Z,100.00
2022-12-03T14:22:49.734Z,99.34
2022-12-03T14:25:16.641Z,97.46
2022-12-03T14:27:43.536Z,100.00
2022-12-03T14:30:11.068Z,98.44
2022-12-03T14:32:37.909Z,100.00
2022-12-03T14:35:09.698Z,100.00
2022-12-03T14:37:37.222Z,100.00
2022-12-03T14:40:07.249Z,97.03
2022-12-03T14:42:34.116Z,99.76
2022-12-03T14:45:00.764Z,95.84
2022-12-03T14:47:27.669Z,98.54
2022-12-03T14:49:54.794Z,99.62
2022-12-03T14:52:21.835Z,98.58
2022-12-03T14:54:48.735Z,98.70
2022-12-03T14:57:15.916Z,97.73
2022-12-03T14:59:43.666Z,97.35
2022-12-03T15:02:11.578Z,96.95
2022-12-03T15:04:39.698Z,100.00
2022-12-03T15:07:07.606Z,99.74
2022-12-03T15:09:34.750Z,100.00
2022-12-03T15:12:01.682Z,100.00
2022-12-03T15:14:28.583Z,98.04
2022-12-03T15:16:55.693Z,97.29
2022-12-03T15:19:23.595Z,99.12
2022-12-03T15:21:50.475Z,96.15
2022-12-03T15:24:17.368Z,97.47
2022-12-03T15:26:44.288Z,94.91
2022-12-03T15:29:11.323Z,96.64
2022-12-03T15:31:38.196Z,94.58
2022-12-03T15:34:05.403Z,97.03
2022-12-03T15:36:32.239Z,98.45
2022-12-03T15:38:58.995Z,93.51
2022-12-03T15:41:29.332Z,95.66
2022-12-03T15:43:58.405Z,97.36
2022-12-03T15:46:26.313Z,98.40
2022-12-03T15:48:53.507Z,100.00
2022-12-03T15:51:20.396Z,97.37
2022-12-03T15:53:47.350Z,100.00
2022-12-03T15:56:14.199Z,100.00
2022-12-03T15:58:41.035Z,100.00
2022-12-03T16:01:09.514Z,100.00
2022-12-03T16:03:36.773Z,100.00
2022-12-03T16:06:03.954Z,99.75
2022-12-03T16:08:30.987Z,100.00
2022-12-03T16:10:58.063Z,100.00
2022-12-03T16:13:25.019Z,100.00
2022-12-03T16:15:51.943Z,98.95
2022-12-03T16:18:18.836Z,97.78
2022-12-03T16:20:46.495Z,97.30
2022-12-03T16:23:13.441Z,98.42
2022-12-03T16:25:40.322Z,99.34
2022-12-03T16:28:07.228Z,97.42
2022-12-03T16:30:36.352Z,96.71
2022-12-03T16:33:03.351Z,90.91
2022-12-03T16:35:30.192Z,87.20
2022-12-03T16:37:56.828Z,89.01
2022-12-03T16:40:23.729Z,85.95
2022-12-03T16:42:50.609Z,85.49
2022-12-03T16:45:40.819Z,91.11
2022-12-03T16:48:07.656Z,92.54
2022-12-03T16:50:37.331Z,94.84
2022-12-03T16:53:04.279Z,94.40
2022-12-03T16:55:31.151Z,92.52
2022-12-03T16:57:58.024Z,96.41
2022-12-03T17:00:26.948Z,96.04
2022-12-03T17:02:53.878Z,93.76
2022-12-03T17:05:20.795Z,93.71
2022-12-03T17:07:47.510Z,98.27
2022-12-03T17:10:14.545Z,99.14
2022-12-03T17:13:08.942Z,98.98
2022-12-03T17:15:28.521Z,96.79
2022-12-03T17:17:55.608Z,96.58
2022-12-03T17:20:22.571Z,92.41
2022-12-03T17:22:49.465Z,91.86
2022-12-03T17:25:16.875Z,91.08
2022-12-03T17:27:45.580Z,96.13
2022-12-03T17:30:13.332Z,96.10
2022-12-03T17:32:40.375Z,97.71
2022-12-03T17:35:07.836Z,99.76
2022-12-03T17:37:35.127Z,98.31
2022-12-03T17:40:02.549Z,97.29
2022-12-03T17:42:29.420Z,100.00
2022-12-03T17:44:56.369Z,98.93
2022-12-03T17:47:23.199Z,97.00
2022-12-03T17:49:52.260Z,95.34
2022-12-03T17:52:19.355Z,96.34
2022-12-03T17:57:33.068Z,96.43
2022-12-03T17:59:59.823Z,99.39
2022-12-03T18:02:26.648Z,96.00
2022-12-03T18:04:53.348Z,95.06
2022-12-03T18:07:20.285Z,99.82
2022-12-03T18:09:47.238Z,100.00
2022-12-03T18:12:14.088Z,97.81
2022-12-03T18:14:40.814Z,100.00
2022-12-03T18:17:07.684Z,98.96
2022-12-03T18:19:34.594Z,99.62
2022-12-03T18:22:01.459Z,98.66
2022-12-03T18:24:28.120Z,99.96
2022-12-03T18:26:55.027Z,99.28
2022-12-03T18:29:21.878Z,97.38
2022-12-03T18:44:56.233Z,94.36
2022-12-03T18:47:26.596Z,98.26
2022-12-03T18:49:54.079Z,100.00
2022-12-03T18:52:23.162Z,98.17
2022-12-03T18:54:50.031Z,95.89
2022-12-03T18:57:16.749Z,93.08
2022-12-03T18:59:43.667Z,92.53
2022-12-03T19:02:53.868Z,93.19
2022-12-03T19:05:07.033Z,91.30
2022-12-03T19:07:33.995Z,87.83
2022-12-03T19:10:00.954Z,93.12
2022-12-03T19:12:27.955Z,93.46
2022-12-03T19:14:54.847Z,91.47
2022-12-03T19:17:21.896Z,93.10
2022-12-03T19:19:48.820Z,89.94
2022-12-03T19:22:15.809Z,91.73
2022-12-03T19:27:09.911Z,89.14
2022-12-03T19:29:36.793Z,89.43
2022-12-03T19:32:04.014Z,91.87
2022-12-03T19:34:30.957Z,90.02
2022-12-03T19:36:57.820Z,86.99
2022-12-03T19:39:25.009Z,90.43
2022-12-03T19:41:51.911Z,93.83
2022-12-03T19:44:19.357Z,95.63
2022-12-03T19:46:46.252Z,92.64
2022-12-03T19:49:13.127Z,94.63
2022-12-03T19:51:40.003Z,91.79
2022-12-03T19:54:10.271Z,94.46
2022-12-03T19:56:37.537Z,96.50
2022-12-03T19:59:05.342Z,95.78
2022-12-03T20:01:34.356Z,97.10
2022-12-03T20:04:03.216Z,99.65
2022-12-03T20:06:32.584Z,96.50
2022-12-03T20:09:06.663Z,97.92
2022-12-03T20:11:34.812Z,96.90
2022-12-03T20:14:05.138Z,96.18
2022-12-03T20:16:32.258Z,96.57
2022-12-03T20:19:01.481Z,93.64
2022-12-03T20:21:30.023Z,95.34
2022-12-03T20:23:56.907Z,93.67
2022-12-03T20:26:24.866Z,96.63
2022-12-03T20:28:54.197Z,94.24
2022-12-03T20:31:23.151Z,94.08
2022-12-03T20:33:51.941Z,94.34
2022-12-03T20:36:20.839Z,96.15
2022-12-03T20:38:47.754Z,98.78
2022-12-03T20:41:18.596Z,99.81
2022-12-03T20:43:45.976Z,100.00
2022-12-03T20:46:25.626Z,98.18
2022-12-03T20:48:54.211Z,98.37
2022-12-03T20:51:22.977Z,98.80
2022-12-03T20:53:49.987Z,96.28
2022-12-03T20:56:20.358Z,98.70
2022-12-03T20:58:51.138Z,97.28
2022-12-03T21:01:19.334Z,95.16
2022-12-03T21:03:47.247Z,99.18
2022-12-03T21:06:14.968Z,95.87
2022-12-03T21:08:43.083Z,94.69
2022-12-03T21:11:12.101Z,93.11
2022-12-03T21:13:41.759Z,93.77
2022-12-03T21:16:10.612Z,94.18
2022-12-03T21:18:37.771Z,93.35
2022-12-03T21:21:05.730Z,87.70
2022-12-03T21:23:33.559Z,88.96
2022-12-03T21:26:17.537Z,84.88
2022-12-03T21:28:50.283Z,85.95
2022-12-03T21:31:19.703Z,87.33
2022-12-03T21:33:47.021Z,87.93
2022-12-03T21:36:16.101Z,85.82
2022-12-03T21:38:44.434Z,88.30
2022-12-03T21:41:12.408Z,86.92
2022-12-03T21:43:39.318Z,92.02
2022-12-03T21:47:11.823Z,88.67
2022-12-03T21:48:58.104Z,92.09
2022-12-03T21:51:24.757Z,90.12
2022-12-03T21:53:51.677Z,92.63
2022-12-03T21:56:19.604Z,92.84
2022-12-03T21:58:46.982Z,90.24
2022-12-03T22:01:19.950Z,89.87
2022-12-03T22:03:47.263Z,90.52
2022-12-03T22:06:14.557Z,93.28
2022-12-03T22:08:41.795Z,88.72
2022-12-03T22:11:13.330Z,91.18
2022-12-03T22:13:41.198Z,92.64
2022-12-03T22:16:11.127Z,97.92
2022-12-03T22:18:38.515Z,98.04
2022-12-03T22:21:07.219Z,99.20
2022-12-03T22:23:34.428Z,100.00
2022-12-03T22:26:03.831Z,100.00
2022-12-03T22:28:30.825Z,97.89
2022-12-03T22:30:57.779Z,97.41
2022-12-03T22:33:25.214Z,96.24
2022-12-03T22:36:00.336Z,99.60
2022-12-03T22:38:29.085Z,96.99
2022-12-03T22:40:57.085Z,100.00
2022-12-03T22:43:24.741Z,98.71
2022-12-03T22:45:55.671Z,98.74
2022-12-03T22:48:23.810Z,98.57
2022-12-03T22:50:51.832Z,97.38
2022-12-03T22:53:19.270Z,95.60
2022-12-03T22:55:56.389Z,100.00
2022-12-03T22:58:23.410Z,98.40
2022-12-03T23:00:50.484Z,100.00
2022-12-03T23:03:17.678Z,100.00
2022-12-03T23:05:44.830Z,99.01
2022-12-03T23:08:15.970Z,98.94
2022-12-03T23:10:44.843Z,97.50
2022-12-03T23:13:12.302Z,99.94
2022-12-03T23:15:47.504Z,98.90
2022-12-03T23:18:14.571Z,100.00
2022-12-03T23:20:52.543Z,100.00
2022-12-03T23:23:20.854Z,100.00
2022-12-03T23:26:05.547Z,100.00
2022-12-03T23:28:34.426Z,100.00
2022-12-03T23:31:01.494Z,100.00
2022-12-03T23:33:28.927Z,100.00
2022-12-03T23:35:55.760Z,100.00
2022-12-03T23:38:22.562Z,98.50
2022-12-03T23:40:49.827Z,100.00
2022-12-03T23:43:16.793Z,100.00
2022-12-03T23:45:43.672Z,100.00
2022-12-03T23:48:10.625Z,98.35
2022-12-03T23:50:41.504Z,100.00
2022-12-03T23:53:09.150Z,100.00
2022-12-03T23:55:40.004Z,100.00
2022-12-03T23:58:06.892Z,100.00
